sensor_id;sensor_type;location;lat;lon;timestamp;P1;durP1;ratioP1;P2;durP2;ratioP2
65271;SDS011;51868;48.812;8.198;2022-11-15T00:01:08;14.45;;;9.10;;
65271;SDS011;51868;48.812;8.198;2022-11-15T00:03:38;14.70;;;8.87;;
65271;SDS011;51868;48.812;8.198;2022-11-15T00:06:06;15.00;;;9.70;;
65271;SDS011;51868;48.812;8.198;2022-11-15T00:08:34;14.73;;;9.60;;
65271;SDS011;51868;48.812;8.198;2022-11-15T00:11:02;14.20;;;8.80;;
65271;SDS011;51868;48.812;8.198;2022-11-15T00:13:30;13.80;;;9.43;;
65271;SDS011;51868;48.812;8.198;2022-11-15T00:15:59;13.25;;;9.10;;
65271;SDS011;51868;48.812;8.198;2022-11-15T00:18:29;12.75;;;8.82;;
65271;SDS011;51868;48.812;8.198;2022-11-15T00:24:26;14.85;;;9.30;;
65271;SDS011;51868;48.812;8.198;2022-11-15T00:27:13;13.70;;;9.30;;
65271;SDS011;51868;48.812;8.198;2022-11-15T00:29:41;14.90;;;10.00;;
65271;SDS011;51868;48.812;8.198;2022-11-15T00:32:09;15.02;;;10.43;;
65271;SDS011;51868;48.812;8.198;2022-11-15T00:34:38;14.73;;;9.68;;
65271;SDS011;51868;48.812;8.198;2022-11-15T00:37:06;13.32;;;9.48;;
65271;SDS011;51868;48.812;8.198;2022-11-15T00:39:34;14.45;;;9.48;;
65271;SDS011;51868;48.812;8.198;2022-11-15T00:42:01;15.40;;;10.15;;
65271;SDS011;51868;48.812;8.198;2022-11-15T00:44:29;16.35;;;9.23;;
65271;SDS011;51868;48.812;8.198;2022-11-15T00:46:57;14.48;;;10.02;;
65271;SDS011;51868;48.812;8.198;2022-11-15T00:49:25;15.48;;;10.25;;
65271;SDS011;51868;48.812;8.198;2022-11-15T00:51:54;17.65;;;10.55;;
65271;SDS011;51868;48.812;8.198;2022-11-15T00:54:22;15.57;;;10.15;;
65271;SDS011;51868;48.812;8.198;2022-11-15T00:56:51;15.63;;;10.32;;
65271;SDS011;51868;48.812;8.198;2022-11-15T00:59:19;12.57;;;9.05;;
65271;SDS011;51868;48.812;8.198;2022-11-15T01:01:46;13.18;;;8.98;;
65271;SDS011;51868;48.812;8.198;2022-11-15T01:04:14;12.55;;;8.95;;
65271;SDS011;51868;48.812;8.198;2022-11-15T01:06:42;14.70;;;9.73;;
65271;SDS011;51868;48.812;8.198;2022-11-15T01:09:11;15.25;;;9.05;;
65271;SDS011;51868;48.812;8.198;2022-11-15T01:11:39;12.73;;;8.85;;
65271;SDS011;51868;48.812;8.198;2022-11-15T01:14:07;15.35;;;9.68;;
65271;SDS011;51868;48.812;8.198;2022-11-15T01:16:35;22.65;;;13.23;;
65271;SDS011;51868;48.812;8.198;2022-11-15T01:19:02;26.05;;;15.27;;
65271;SDS011;51868;48.812;8.198;2022-11-15T01:21:30;24.08;;;14.13;;
65271;SDS011;51868;48.812;8.198;2022-11-15T01:23:58;20.65;;;12.70;;
65271;SDS011;51868;48.812;8.198;2022-11-15T01:26:27;18.35;;;11.52;;
65271;SDS011;51868;48.812;8.198;2022-11-15T01:28:55;19.65;;;12.80;;
65271;SDS011;51868;48.812;8.198;2022-11-15T01:31:23;18.52;;;13.05;;
65271;SDS011;51868;48.812;8.198;2022-11-15T01:33:50;20.70;;;12.73;;
65271;SDS011;51868;48.812;8.198;2022-11-15T01:36:19;21.52;;;13.52;;
65271;SDS011;51868;48.812;8.198;2022-11-15T01:38:52;23.33;;;14.60;;
65271;SDS011;51868;48.812;8.198;2022-11-15T01:41:21;26.05;;;15.48;;
65271;SDS011;51868;48.812;8.198;2022-11-15T01:43:53;30.13;;;14.77;;
65271;SDS011;51868;48.812;8.198;2022-11-15T01:46:23;26.58;;;15.18;;
65271;SDS011;51868;48.812;8.198;2022-11-15T01:48:55;25.60;;;16.10;;
65271;SDS011;51868;48.812;8.198;2022-11-15T01:51:26;24.88;;;15.77;;
65271;SDS011;51868;48.812;8.198;2022-11-15T01:53:59;25.13;;;14.95;;
65271;SDS011;51868;48.812;8.198;2022-11-15T01:56:32;24.98;;;13.43;;
65271;SDS011;51868;48.812;8.198;2022-11-15T01:59:06;23.85;;;13.23;;
65271;SDS011;51868;48.812;8.198;2022-11-15T02:01:35;20.10;;;12.73;;
65271;SDS011;51868;48.812;8.198;2022-11-15T02:04:05;22.13;;;12.57;;
65271;SDS011;51868;48.812;8.198;2022-11-15T02:06:37;21.40;;;12.82;;
65271;SDS011;51868;48.812;8.198;2022-11-15T02:09:06;17.05;;;10.93;;
65271;SDS011;51868;48.812;8.198;2022-11-15T02:11:35;15.18;;;9.68;;
65271;SDS011;51868;48.812;8.198;2022-11-15T02:14:04;13.82;;;7.72;;
65271;SDS011;51868;48.812;8.198;2022-11-15T02:16:35;12.60;;;7.88;;
65271;SDS011;51868;48.812;8.198;2022-11-15T02:19:13;11.07;;;7.88;;
65271;SDS011;51868;48.812;8.198;2022-11-15T02:21:57;9.70;;;7.35;;
65271;SDS011;51868;48.812;8.198;2022-11-15T02:25:00;11.75;;;7.40;;
65271;SDS011;51868;48.812;8.198;2022-11-15T02:27:47;11.55;;;7.82;;
65271;SDS011;51868;48.812;8.198;2022-11-15T02:30:49;49.67;;;29.88;;
65271;SDS011;51868;48.812;8.198;2022-11-15T02:33:25;64.88;;;33.42;;
65271;SDS011;51868;48.812;8.198;2022-11-15T02:36:00;136.45;;;61.50;;
65271;SDS011;51868;48.812;8.198;2022-11-15T02:38:31;181.07;;;85.57;;
65271;SDS011;51868;48.812;8.198;2022-11-15T02:41:09;150.88;;;77.20;;
65271;SDS011;51868;48.812;8.198;2022-11-15T02:43:47;133.50;;;69.85;;
65271;SDS011;51868;48.812;8.198;2022-11-15T02:46:27;71.35;;;37.85;;
65271;SDS011;51868;48.812;8.198;2022-11-15T02:51:45;34.15;;;19.70;;
65271;SDS011;51868;48.812;8.198;2022-11-15T02:54:18;26.98;;;14.10;;
65271;SDS011;51868;48.812;8.198;2022-11-15T02:56:48;22.85;;;14.85;;
65271;SDS011;51868;48.812;8.198;2022-11-15T02:59:22;27.15;;;17.45;;
65271;SDS011;51868;48.812;8.198;2022-11-15T03:02:03;19.98;;;12.25;;
65271;SDS011;51868;48.812;8.198;2022-11-15T03:04:43;24.58;;;13.35;;
65271;SDS011;51868;48.812;8.198;2022-11-15T03:07:18;19.85;;;12.45;;
65271;SDS011;51868;48.812;8.198;2022-11-15T03:09:52;19.10;;;11.48;;
65271;SDS011;51868;48.812;8.198;2022-11-15T03:12:30;19.48;;;10.85;;
65271;SDS011;51868;48.812;8.198;2022-11-15T03:15:05;19.45;;;11.02;;
65271;SDS011;51868;48.812;8.198;2022-11-15T03:17:40;17.35;;;11.60;;
65271;SDS011;51868;48.812;8.198;2022-11-15T03:20:16;21.70;;;12.60;;
65271;SDS011;51868;48.812;8.198;2022-11-15T03:22:45;18.27;;;12.07;;
65271;SDS011;51868;48.812;8.198;2022-11-15T03:25:16;16.38;;;8.85;;
65271;SDS011;51868;48.812;8.198;2022-11-15T03:27:50;13.93;;;9.57;;
65271;SDS011;51868;48.812;8.198;2022-11-15T03:30:24;13.57;;;9.20;;
65271;SDS011;51868;48.812;8.198;2022-11-15T03:32:54;12.43;;;8.98;;
65271;SDS011;51868;48.812;8.198;2022-11-15T03:35:24;12.00;;;9.18;;
65271;SDS011;51868;48.812;8.198;2022-11-15T03:37:54;12.35;;;8.18;;
65271;SDS011;51868;48.812;8.198;2022-11-15T03:40:27;11.57;;;7.97;;
65271;SDS011;51868;48.812;8.198;2022-11-15T03:43:02;14.45;;;8.48;;
65271;SDS011;51868;48.812;8.198;2022-11-15T03:45:35;13.63;;;7.90;;
65271;SDS011;51868;48.812;8.198;2022-11-15T03:48:10;12.35;;;7.30;;
65271;SDS011;51868;48.812;8.198;2022-11-15T03:50:41;13.60;;;7.80;;
65271;SDS011;51868;48.812;8.198;2022-11-15T03:53:10;10.45;;;7.15;;
65271;SDS011;51868;48.812;8.198;2022-11-15T03:55:40;9.98;;;7.15;;
65271;SDS011;51868;48.812;8.198;2022-11-15T03:58:08;10.68;;;6.82;;
65271;SDS011;51868;48.812;8.198;2022-11-15T04:00:36;8.82;;;6.35;;
65271;SDS011;51868;48.812;8.198;2022-11-15T04:03:04;11.18;;;6.80;;
65271;SDS011;51868;48.812;8.198;2022-11-15T04:05:34;11.18;;;7.32;;
65271;SDS011;51868;48.812;8.198;2022-11-15T04:08:02;9.98;;;6.90;;
65271;SDS011;51868;48.812;8.198;2022-11-15T04:10:30;12.48;;;6.65;;
65271;SDS011;51868;48.812;8.198;2022-11-15T04:12:58;7.53;;;6.40;;
65271;SDS011;51868;48.812;8.198;2022-11-15T04:15:26;8.63;;;6.60;;
65271;SDS011;51868;48.812;8.198;2022-11-15T04:17:56;37.05;;;16.65;;
65271;SDS011;51868;48.812;8.198;2022-11-15T04:20:25;35.53;;;14.85;;
65271;SDS011;51868;48.812;8.198;2022-11-15T04:23:13;22.55;;;12.65;;
65271;SDS011;51868;48.812;8.198;2022-11-15T04:26:01;25.60;;;12.27;;
65271;SDS011;51868;48.812;8.198;2022-11-15T04:28:30;25.95;;;12.27;;
65271;SDS011;51868;48.812;8.198;2022-11-15T04:30:59;20.15;;;9.95;;
65271;SDS011;51868;48.812;8.198;2022-11-15T04:33:29;20.60;;;9.43;;
65271;SDS011;51868;48.812;8.198;2022-11-15T04:35:57;18.13;;;9.27;;
65271;SDS011;51868;48.812;8.198;2022-11-15T04:38:43;19.70;;;9.63;;
65271;SDS011;51868;48.812;8.198;2022-11-15T04:41:11;17.35;;;8.60;;
65271;SDS011;51868;48.812;8.198;2022-11-15T04:43:39;15.25;;;9.50;;
65271;SDS011;51868;48.812;8.198;2022-11-15T04:46:06;14.98;;;8.65;;
65271;SDS011;51868;48.812;8.198;2022-11-15T04:48:34;14.18;;;8.70;;
65271;SDS011;51868;48.812;8.198;2022-11-15T04:51:02;13.43;;;7.95;;
65271;SDS011;51868;48.812;8.198;2022-11-15T04:53:29;15.50;;;8.93;;
65271;SDS011;51868;48.812;8.198;2022-11-15T04:55:59;15.15;;;8.93;;
65271;SDS011;51868;48.812;8.198;2022-11-15T04:58:27;15.52;;;9.13;;
65271;SDS011;51868;48.812;8.198;2022-11-15T05:00:54;15.57;;;9.70;;
65271;SDS011;51868;48.812;8.198;2022-11-15T05:03:22;15.55;;;8.73;;
65271;SDS011;51868;48.812;8.198;2022-11-15T05:06:07;12.63;;;8.48;;
65271;SDS011;51868;48.812;8.198;2022-11-15T05:08:35;13.43;;;8.10;;
65271;SDS011;51868;48.812;8.198;2022-11-15T05:11:04;15.93;;;9.75;;
65271;SDS011;51868;48.812;8.198;2022-11-15T05:13:32;16.52;;;10.75;;
65271;SDS011;51868;48.812;8.198;2022-11-15T05:16:00;28.42;;;20.67;;
65271;SDS011;51868;48.812;8.198;2022-11-15T05:18:27;22.90;;;16.17;;
65271;SDS011;51868;48.812;8.198;2022-11-15T05:20:55;33.13;;;20.23;;
65271;SDS011;51868;48.812;8.198;2022-11-15T05:23:23;36.30;;;24.80;;
65271;SDS011;51868;48.812;8.198;2022-11-15T05:25:50;28.35;;;18.60;;
65271;SDS011;51868;48.812;8.198;2022-11-15T05:28:19;25.92;;;17.98;;
65271;SDS011;51868;48.812;8.198;2022-11-15T05:30:47;14.75;;;9.57;;
65271;SDS011;51868;48.812;8.198;2022-11-15T05:33:15;30.88;;;20.42;;
65271;SDS011;51868;48.812;8.198;2022-11-15T05:35:45;27.30;;;18.35;;
65271;SDS011;51868;48.812;8.198;2022-11-15T05:38:16;26.08;;;15.70;;
65271;SDS011;51868;48.812;8.198;2022-11-15T05:40:44;15.45;;;10.13;;
65271;SDS011;51868;48.812;8.198;2022-11-15T05:43:14;16.30;;;8.13;;
65271;SDS011;51868;48.812;8.198;2022-11-15T05:45:43;14.35;;;8.88;;
65271;SDS011;51868;48.812;8.198;2022-11-15T05:48:11;14.63;;;9.30;;
65271;SDS011;51868;48.812;8.198;2022-11-15T05:50:41;11.02;;;7.13;;
65271;SDS011;51868;48.812;8.198;2022-11-15T05:53:11;14.25;;;8.38;;
65271;SDS011;51868;48.812;8.198;2022-11-15T05:55:41;13.90;;;7.72;;
65271;SDS011;51868;48.812;8.198;2022-11-15T05:58:09;11.70;;;7.32;;
65271;SDS011;51868;48.812;8.198;2022-11-15T06:00:37;19.88;;;11.77;;
65271;SDS011;51868;48.812;8.198;2022-11-15T06:03:10;15.02;;;9.45;;
65271;SDS011;51868;48.812;8.198;2022-11-15T06:05:40;13.05;;;8.73;;
65271;SDS011;51868;48.812;8.198;2022-11-15T06:08:09;13.10;;;8.43;;
65271;SDS011;51868;48.812;8.198;2022-11-15T06:10:37;14.02;;;8.55;;
65271;SDS011;51868;48.812;8.198;2022-11-15T06:13:05;15.25;;;9.70;;
65271;SDS011;51868;48.812;8.198;2022-11-15T06:15:33;13.63;;;9.32;;
65271;SDS011;51868;48.812;8.198;2022-11-15T06:18:01;17.58;;;9.70;;
65271;SDS011;51868;48.812;8.198;2022-11-15T06:20:30;14.40;;;8.85;;
65271;SDS011;51868;48.812;8.198;2022-11-15T06:22:57;16.60;;;9.93;;
65271;SDS011;51868;48.812;8.198;2022-11-15T06:25:26;16.23;;;9.63;;
65271;SDS011;51868;48.812;8.198;2022-11-15T06:27:55;17.17;;;10.07;;
65271;SDS011;51868;48.812;8.198;2022-11-15T06:30:23;14.77;;;9.65;;
65271;SDS011;51868;48.812;8.198;2022-11-15T06:32:58;21.92;;;12.07;;
65271;SDS011;51868;48.812;8.198;2022-11-15T06:35:26;29.65;;;13.68;;
65271;SDS011;51868;48.812;8.198;2022-11-15T06:37:56;20.65;;;11.73;;
65271;SDS011;51868;48.812;8.198;2022-11-15T06:40:29;21.73;;;11.90;;
65271;SDS011;51868;48.812;8.198;2022-11-15T06:42:57;23.83;;;11.45;;
65271;SDS011;51868;48.812;8.198;2022-11-15T06:45:28;20.77;;;11.00;;
65271;SDS011;51868;48.812;8.198;2022-11-15T06:47:58;15.05;;;8.48;;
65271;SDS011;51868;48.812;8.198;2022-11-15T06:50:26;19.45;;;9.85;;
65271;SDS011;51868;48.812;8.198;2022-11-15T06:52:53;27.42;;;13.35;;
65271;SDS011;51868;48.812;8.198;2022-11-15T06:55:29;50.85;;;21.92;;
65271;SDS011;51868;48.812;8.198;2022-11-15T06:57:57;41.65;;;19.08;;
65271;SDS011;51868;48.812;8.198;2022-11-15T07:00:25;31.48;;;14.13;;
65271;SDS011;51868;48.812;8.198;2022-11-15T07:02:52;25.58;;;11.65;;
65271;SDS011;51868;48.812;8.198;2022-11-15T07:05:29;30.30;;;12.85;;
65271;SDS011;51868;48.812;8.198;2022-11-15T07:07:57;23.63;;;12.02;;
65271;SDS011;51868;48.812;8.198;2022-11-15T07:10:27;20.50;;;10.70;;
65271;SDS011;51868;48.812;8.198;2022-11-15T07:12:55;21.40;;;11.30;;
65271;SDS011;51868;48.812;8.198;2022-11-15T07:15:24;14.90;;;8.85;;
65271;SDS011;51868;48.812;8.198;2022-11-15T07:17:52;15.50;;;8.48;;
65271;SDS011;51868;48.812;8.198;2022-11-15T07:20:20;14.82;;;8.95;;
65271;SDS011;51868;48.812;8.198;2022-11-15T07:22:48;14.18;;;9.30;;
65271;SDS011;51868;48.812;8.198;2022-11-15T07:25:16;19.45;;;11.02;;
65271;SDS011;51868;48.812;8.198;2022-11-15T07:27:45;19.63;;;10.95;;
65271;SDS011;51868;48.812;8.198;2022-11-15T07:30:22;20.67;;;11.02;;
65271;SDS011;51868;48.812;8.198;2022-11-15T07:32:52;21.00;;;11.00;;
65271;SDS011;51868;48.812;8.198;2022-11-15T07:35:20;21.42;;;11.57;;
65271;SDS011;51868;48.812;8.198;2022-11-15T07:37:55;18.70;;;11.93;;
65271;SDS011;51868;48.812;8.198;2022-11-15T07:40:23;19.00;;;10.23;;
65271;SDS011;51868;48.812;8.198;2022-11-15T07:42:53;18.02;;;10.30;;
65271;SDS011;51868;48.812;8.198;2022-11-15T07:45:26;17.00;;;9.00;;
65271;SDS011;51868;48.812;8.198;2022-11-15T07:47:54;20.02;;;9.57;;
65271;SDS011;51868;48.812;8.198;2022-11-15T07:50:22;18.13;;;11.07;;
65271;SDS011;51868;48.812;8.198;2022-11-15T07:52:53;19.25;;;12.07;;
65271;SDS011;51868;48.812;8.198;2022-11-15T07:55:22;23.27;;;14.32;;
65271;SDS011;51868;48.812;8.198;2022-11-15T07:57:50;45.28;;;20.52;;
65271;SDS011;51868;48.812;8.198;2022-11-15T08:00:19;45.83;;;21.73;;
65271;SDS011;51868;48.812;8.198;2022-11-15T08:03:02;41.08;;;21.15;;
65271;SDS011;51868;48.812;8.198;2022-11-15T08:05:31;26.88;;;15.68;;
65271;SDS011;51868;48.812;8.198;2022-11-15T08:08:00;17.23;;;12.23;;
65271;SDS011;51868;48.812;8.198;2022-11-15T08:10:28;12.60;;;9.10;;
65271;SDS011;51868;48.812;8.198;2022-11-15T08:13:02;14.13;;;9.30;;
65271;SDS011;51868;48.812;8.198;2022-11-15T08:15:33;10.65;;;7.32;;
65271;SDS011;51868;48.812;8.198;2022-11-15T08:18:02;12.50;;;7.18;;
65271;SDS011;51868;48.812;8.198;2022-11-15T08:20:31;9.70;;;6.22;;
65271;SDS011;51868;48.812;8.198;2022-11-15T08:23:00;10.75;;;6.47;;
65271;SDS011;51868;48.812;8.198;2022-11-15T08:25:30;10.23;;;7.72;;
65271;SDS011;51868;48.812;8.198;2022-11-15T08:28:00;9.95;;;8.07;;
65271;SDS011;51868;48.812;8.198;2022-11-15T08:30:28;13.85;;;7.57;;
65271;SDS011;51868;48.812;8.198;2022-11-15T08:32:58;13.52;;;9.20;;
65271;SDS011;51868;48.812;8.198;2022-11-15T08:35:26;12.98;;;8.25;;
65271;SDS011;51868;48.812;8.198;2022-11-15T08:37:54;13.30;;;7.72;;
65271;SDS011;51868;48.812;8.198;2022-11-15T08:40:22;11.95;;;7.45;;
65271;SDS011;51868;48.812;8.198;2022-11-15T08:42:53;10.75;;;6.95;;
65271;SDS011;51868;48.812;8.198;2022-11-15T08:45:21;10.30;;;6.75;;
65271;SDS011;51868;48.812;8.198;2022-11-15T08:47:49;14.07;;;6.63;;
65271;SDS011;51868;48.812;8.198;2022-11-15T08:50:21;10.43;;;7.47;;
65271;SDS011;51868;48.812;8.198;2022-11-15T08:52:49;14.63;;;7.18;;
65271;SDS011;51868;48.812;8.198;2022-11-15T08:55:17;35.03;;;16.02;;
65271;SDS011;51868;48.812;8.198;2022-11-15T09:00:17;24.63;;;13.35;;
65271;SDS011;51868;48.812;8.198;2022-11-15T09:02:46;18.95;;;9.80;;
65271;SDS011;51868;48.812;8.198;2022-11-15T09:05:14;13.38;;;7.93;;
65271;SDS011;51868;48.812;8.198;2022-11-15T09:07:44;13.57;;;8.32;;
65271;SDS011;51868;48.812;8.198;2022-11-15T09:10:12;10.02;;;6.88;;
65271;SDS011;51868;48.812;8.198;2022-11-15T09:12:40;11.95;;;8.52;;
65271;SDS011;51868;48.812;8.198;2022-11-15T09:15:08;14.35;;;9.32;;
65271;SDS011;51868;48.812;8.198;2022-11-15T09:17:38;13.68;;;8.77;;
65271;SDS011;51868;48.812;8.198;2022-11-15T09:20:06;13.50;;;9.32;;
65271;SDS011;51868;48.812;8.198;2022-11-15T09:22:35;15.75;;;10.32;;
65271;SDS011;51868;48.812;8.198;2022-11-15T09:25:06;16.92;;;9.30;;
65271;SDS011;51868;48.812;8.198;2022-11-15T09:27:36;15.23;;;9.65;;
65271;SDS011;51868;48.812;8.198;2022-11-15T09:30:04;17.08;;;10.07;;
65271;SDS011;51868;48.812;8.198;2022-11-15T09:32:33;14.75;;;9.85;;
65271;SDS011;51868;48.812;8.198;2022-11-15T09:35:05;16.38;;;9.65;;
65271;SDS011;51868;48.812;8.198;2022-11-15T09:37:32;16.23;;;9.90;;
65271;SDS011;51868;48.812;8.198;2022-11-15T09:40:00;17.25;;;10.43;;
65271;SDS011;51868;48.812;8.198;2022-11-15T09:42:33;16.83;;;10.13;;
65271;SDS011;51868;48.812;8.198;2022-11-15T09:45:15;15.57;;;10.27;;
65271;SDS011;51868;48.812;8.198;2022-11-15T09:47:59;14.38;;;9.40;;
65271;SDS011;51868;48.812;8.198;2022-11-15T09:50:38;13.75;;;9.18;;
65271;SDS011;51868;48.812;8.198;2022-11-15T09:53:11;15.30;;;9.05;;
65271;SDS011;51868;48.812;8.198;2022-11-15T09:55:40;14.57;;;8.60;;
65271;SDS011;51868;48.812;8.198;2022-11-15T09:58:21;12.57;;;7.82;;
65271;SDS011;51868;48.812;8.198;2022-11-15T10:00:54;12.77;;;9.15;;
65271;SDS011;51868;48.812;8.198;2022-11-15T10:03:26;14.15;;;8.57;;
65271;SDS011;51868;48.812;8.198;2022-11-15T10:05:57;13.02;;;8.32;;
65271;SDS011;51868;48.812;8.198;2022-11-15T10:08:31;14.27;;;9.05;;
65271;SDS011;51868;48.812;8.198;2022-11-15T10:11:08;12.55;;;8.63;;
65271;SDS011;51868;48.812;8.198;2022-11-15T10:13:59;14.98;;;8.00;;
65271;SDS011;51868;48.812;8.198;2022-11-15T10:16:40;13.07;;;9.07;;
65271;SDS011;51868;48.812;8.198;2022-11-15T10:19:23;15.30;;;9.48;;
65271;SDS011;51868;48.812;8.198;2022-11-15T10:22:00;12.10;;;8.63;;
65271;SDS011;51868;48.812;8.198;2022-11-15T10:24:40;23.42;;;14.60;;
65271;SDS011;51868;48.812;8.198;2022-11-15T10:27:10;17.23;;;11.50;;
65271;SDS011;51868;48.812;8.198;2022-11-15T10:29:43;19.83;;;13.80;;
65271;SDS011;51868;48.812;8.198;2022-11-15T10:32:12;22.42;;;14.02;;
65271;SDS011;51868;48.812;8.198;2022-11-15T10:34:41;18.50;;;12.25;;
65271;SDS011;51868;48.812;8.198;2022-11-15T10:37:09;19.55;;;11.18;;
65271;SDS011;51868;48.812;8.198;2022-11-15T10:39:37;19.60;;;12.63;;
65271;SDS011;51868;48.812;8.198;2022-11-15T10:42:14;17.50;;;12.20;;
65271;SDS011;51868;48.812;8.198;2022-11-15T10:44:45;19.40;;;11.05;;
65271;SDS011;51868;48.812;8.198;2022-11-15T10:47:23;14.70;;;10.52;;
65271;SDS011;51868;48.812;8.198;2022-11-15T10:49:54;17.83;;;14.02;;
65271;SDS011;51868;48.812;8.198;2022-11-15T10:52:26;15.90;;;11.73;;
65271;SDS011;51868;48.812;8.198;2022-11-15T10:54:56;15.38;;;10.00;;
65271;SDS011;51868;48.812;8.198;2022-11-15T10:57:28;14.65;;;10.52;;
65271;SDS011;51868;48.812;8.198;2022-11-15T11:00:00;15.00;;;9.68;;
65271;SDS011;51868;48.812;8.198;2022-11-15T11:02:31;11.85;;;8.93;;
65271;SDS011;51868;48.812;8.198;2022-11-15T11:05:01;13.32;;;8.98;;
65271;SDS011;51868;48.812;8.198;2022-11-15T11:07:32;10.25;;;6.82;;
65271;SDS011;51868;48.812;8.198;2022-11-15T11:10:04;11.25;;;7.50;;
65271;SDS011;51868;48.812;8.198;2022-11-15T11:13:13;9.55;;;5.85;;
65271;SDS011;51868;48.812;8.198;2022-11-15T11:15:44;10.73;;;6.68;;
65271;SDS011;51868;48.812;8.198;2022-11-15T11:18:18;9.50;;;6.70;;
65271;SDS011;51868;48.812;8.198;2022-11-15T11:20:54;9.25;;;6.15;;
65271;SDS011;51868;48.812;8.198;2022-11-15T11:23:33;8.98;;;4.80;;
65271;SDS011;51868;48.812;8.198;2022-11-15T11:26:13;7.82;;;5.10;;
65271;SDS011;51868;48.812;8.198;2022-11-15T11:28:54;6.93;;;4.55;;
65271;SDS011;51868;48.812;8.198;2022-11-15T11:31:31;6.18;;;4.50;;
65271;SDS011;51868;48.812;8.198;2022-11-15T11:34:15;7.85;;;6.28;;
65271;SDS011;51868;48.812;8.198;2022-11-15T11:36:53;14.07;;;7.50;;
65271;SDS011;51868;48.812;8.198;2022-11-15T11:39:29;13.95;;;8.45;;
65271;SDS011;51868;48.812;8.198;2022-11-15T11:42:07;12.77;;;7.82;;
65271;SDS011;51868;48.812;8.198;2022-11-15T11:44:43;11.30;;;6.45;;
65271;SDS011;51868;48.812;8.198;2022-11-15T11:47:19;15.02;;;6.93;;
65271;SDS011;51868;48.812;8.198;2022-11-15T11:49:50;6.68;;;5.70;;
65271;SDS011;51868;48.812;8.198;2022-11-15T11:52:21;7.55;;;4.63;;
65271;SDS011;51868;48.812;8.198;2022-11-15T11:54:59;11.13;;;4.75;;
65271;SDS011;51868;48.812;8.198;2022-11-15T11:57:34;6.80;;;4.53;;
65271;SDS011;51868;48.812;8.198;2022-11-15T12:00:14;7.13;;;4.57;;
65271;SDS011;51868;48.812;8.198;2022-11-15T12:02:48;8.70;;;4.85;;
65271;SDS011;51868;48.812;8.198;2022-11-15T12:05:27;9.80;;;6.05;;
65271;SDS011;51868;48.812;8.198;2022-11-15T12:08:01;8.50;;;4.90;;
65271;SDS011;51868;48.812;8.198;2022-11-15T12:10:36;9.50;;;5.35;;
65271;SDS011;51868;48.812;8.198;2022-11-15T12:13:06;7.70;;;4.88;;
65271;SDS011;51868;48.812;8.198;2022-11-15T12:15:39;7.03;;;5.10;;
65271;SDS011;51868;48.812;8.198;2022-11-15T12:20:41;9.25;;;6.18;;
65271;SDS011;51868;48.812;8.198;2022-11-15T12:23:19;7.25;;;5.88;;
65271;SDS011;51868;48.812;8.198;2022-11-15T12:25:52;8.85;;;5.40;;
65271;SDS011;51868;48.812;8.198;2022-11-15T12:28:24;7.63;;;5.95;;
65271;SDS011;51868;48.812;8.198;2022-11-15T12:31:02;8.65;;;4.90;;
65271;SDS011;51868;48.812;8.198;2022-11-15T12:33:36;7.55;;;4.60;;
65271;SDS011;51868;48.812;8.198;2022-11-15T12:36:07;6.72;;;4.78;;
65271;SDS011;51868;48.812;8.198;2022-11-15T12:38:51;8.57;;;4.63;;
65271;SDS011;51868;48.812;8.198;2022-11-15T12:41:22;10.02;;;5.43;;
65271;SDS011;51868;48.812;8.198;2022-11-15T12:43:50;7.00;;;4.65;;
65271;SDS011;51868;48.812;8.198;2022-11-15T12:46:20;5.95;;;5.10;;
65271;SDS011;51868;48.812;8.198;2022-11-15T12:48:53;5.40;;;4.03;;
65271;SDS011;51868;48.812;8.198;2022-11-15T12:52:03;5.38;;;4.25;;
65271;SDS011;51868;48.812;8.198;2022-11-15T12:57:38;4.72;;;3.75;;
65271;SDS011;51868;48.812;8.198;2022-11-15T13:00:36;5.32;;;3.70;;
65271;SDS011;51868;48.812;8.198;2022-11-15T13:03:24;8.88;;;3.78;;
65271;SDS011;51868;48.812;8.198;2022-11-15T13:06:00;5.75;;;4.03;;
65271;SDS011;51868;48.812;8.198;2022-11-15T13:08:36;5.63;;;3.38;;
65271;SDS011;51868;48.812;8.198;2022-11-15T13:20:19;8.32;;;5.07;;
65271;SDS011;51868;48.812;8.198;2022-11-15T13:22:59;7.68;;;5.63;;
65271;SDS011;51868;48.812;8.198;2022-11-15T13:28:38;10.07;;;5.60;;
65271;SDS011;51868;48.812;8.198;2022-11-15T13:31:22;6.72;;;4.80;;
65271;SDS011;51868;48.812;8.198;2022-11-15T13:33:56;7.35;;;4.30;;
65271;SDS011;51868;48.812;8.198;2022-11-15T13:36:27;5.07;;;3.97;;
65271;SDS011;51868;48.812;8.198;2022-11-15T13:39:00;5.00;;;3.88;;
65271;SDS011;51868;48.812;8.198;2022-11-15T13:41:29;6.82;;;5.03;;
65271;SDS011;51868;48.812;8.198;2022-11-15T13:43:59;8.02;;;4.40;;
65271;SDS011;51868;48.812;8.198;2022-11-15T13:46:28;7.15;;;3.83;;
65271;SDS011;51868;48.812;8.198;2022-11-15T13:48:57;6.35;;;4.07;;
65271;SDS011;51868;48.812;8.198;2022-11-15T13:51:29;5.13;;;4.03;;
65271;SDS011;51868;48.812;8.198;2022-11-15T13:54:03;5.55;;;3.90;;
65271;SDS011;51868;48.812;8.198;2022-11-15T13:56:42;7.55;;;4.20;;
65271;SDS011;51868;48.812;8.198;2022-11-15T13:59:14;5.35;;;3.88;;
65271;SDS011;51868;48.812;8.198;2022-11-15T14:01:44;6.95;;;4.30;;
65271;SDS011;51868;48.812;8.198;2022-11-15T14:04:13;6.78;;;4.32;;
65271;SDS011;51868;48.812;8.198;2022-11-15T14:06:46;6.80;;;5.05;;
65271;SDS011;51868;48.812;8.198;2022-11-15T14:12:24;11.25;;;5.72;;
65271;SDS011;51868;48.812;8.198;2022-11-15T14:14:55;9.23;;;5.85;;
65271;SDS011;51868;48.812;8.198;2022-11-15T14:17:33;19.08;;;9.02;;
65271;SDS011;51868;48.812;8.198;2022-11-15T14:20:18;39.95;;;15.05;;
65271;SDS011;51868;48.812;8.198;2022-11-15T14:22:59;12.48;;;6.35;;
65271;SDS011;51868;48.812;8.198;2022-11-15T14:25:29;10.30;;;6.10;;
65271;SDS011;51868;48.812;8.198;2022-11-15T14:28:07;9.45;;;6.13;;
65271;SDS011;51868;48.812;8.198;2022-11-15T14:30:37;7.13;;;5.25;;
65271;SDS011;51868;48.812;8.198;2022-11-15T14:33:16;9.63;;;5.45;;
65271;SDS011;51868;48.812;8.198;2022-11-15T14:35:47;14.63;;;9.38;;
65271;SDS011;51868;48.812;8.198;2022-11-15T14:38:14;13.50;;;7.72;;
65271;SDS011;51868;48.812;8.198;2022-11-15T14:40:44;10.75;;;7.07;;
65271;SDS011;51868;48.812;8.198;2022-11-15T14:43:12;16.13;;;9.43;;
65271;SDS011;51868;48.812;8.198;2022-11-15T14:45:40;9.68;;;6.65;;
65271;SDS011;51868;48.812;8.198;2022-11-15T14:48:08;10.02;;;6.30;;
65271;SDS011;51868;48.812;8.198;2022-11-15T14:50:36;9.43;;;5.22;;
65271;SDS011;51868;48.812;8.198;2022-11-15T14:53:04;8.65;;;5.07;;
65271;SDS011;51868;48.812;8.198;2022-11-15T14:55:33;7.30;;;5.65;;
65271;SDS011;51868;48.812;8.198;2022-11-15T14:58:04;10.07;;;6.03;;
65271;SDS011;51868;48.812;8.198;2022-11-15T15:00:34;7.53;;;5.63;;
65271;SDS011;51868;48.812;8.198;2022-11-15T15:03:02;9.20;;;6.47;;
65271;SDS011;51868;48.812;8.198;2022-11-15T15:05:32;7.22;;;5.40;;
65271;SDS011;51868;48.812;8.198;2022-11-15T15:08:03;10.68;;;5.82;;
65271;SDS011;51868;48.812;8.198;2022-11-15T15:10:33;9.88;;;6.07;;
65271;SDS011;51868;48.812;8.198;2022-11-15T15:13:10;15.27;;;6.70;;
65271;SDS011;51868;48.812;8.198;2022-11-15T15:15:43;7.78;;;5.13;;
65271;SDS011;51868;48.812;8.198;2022-11-15T15:18:11;8.18;;;5.07;;
65271;SDS011;51868;48.812;8.198;2022-11-15T15:20:39;8.73;;;5.00;;
65271;SDS011;51868;48.812;8.198;2022-11-15T15:23:15;10.38;;;6.63;;
65271;SDS011;51868;48.812;8.198;2022-11-15T15:25:44;44.17;;;21.58;;
65271;SDS011;51868;48.812;8.198;2022-11-15T15:28:16;27.45;;;15.40;;
65271;SDS011;51868;48.812;8.198;2022-11-15T15:30:44;19.13;;;10.77;;